Time;durP1;ratioP1;P1;durP2;ratioP2;P2;SDS_P1;SDS_P2;PMS_P1;PMS_P2;Temp;Humidity;BMP_temperature;BMP_pressure;BME280_temperature;BME280_humidity;BME280_pressure;Samples;Min_cycle;Max_cycle;Signal;HPM_P1;HPM_P2
2023/07/03 00:00:04;;;;;;;19.27;12.15;;;;;;;20.16;83.00;94467.00;4936007;29;20230;-89
2023/07/03 00:02:30;;;;;;;14.38;10.90;;;;;;;19.93;82.71;94425.75;4933692;29;20229;-88
2023/07/03 00:04:55;;;;;;;16.20;11.80;;;;;;;20.01;82.85;94440.38;4933834;29;20220;-89
2023/07/03 00:07:20;;;;;;;14.73;11.23;;;;;;;20.15;83.03;94453.94;4934016;29;20179;-88
2023/07/03 00:09:46;;;;;;;15.82;11.70;;;;;;;19.94;83.18;94437.25;4949847;29;20282;-88
2023/07/03 00:12:11;;;;;;;14.50;11.23;;;;;;;20.00;83.28;94446.81;4950498;29;20701;-88
2023/07/03 00:14:38;;;;;;;17.98;12.43;;;;;;;20.28;83.07;94480.00;4935736;29;20171;-88
2023/07/03 00:17:04;;;;;;;24.80;11.95;;;;;;;20.04;82.75;94441.72;4950517;29;20163;-88
2023/07/03 00:19:30;;;;;;;16.63;11.13;;;;;;;20.04;82.68;94445.19;4935605;29;20175;-88
2023/07/03 00:22:00;;;;;;;14.90;11.20;;;;;;;20.07;82.90;94454.50;4935640;29;20160;-88
2023/07/03 00:24:27;;;;;;;16.10;12.98;;;;;;;20.06;83.61;94485.00;4935384;29;20249;-89
2023/07/03 00:26:52;;;;;;;16.27;12.32;;;;;;;19.82;83.52;94450.94;4935466;29;20192;-88
2023/07/03 00:29:17;;;;;;;16.40;12.43;;;;;;;19.73;84.30;94436.59;4950949;29;20654;-89
2023/07/03 00:31:43;;;;;;;17.63;11.73;;;;;;;19.70;84.07;94426.47;4934282;29;20616;-89
2023/07/03 00:34:08;;;;;;;15.32;12.65;;;;;;;19.95;84.06;94466.38;4935415;29;20175;-89
2023/07/03 00:36:33;;;;;;;14.75;11.05;;;;;;;20.14;84.09;94503.13;4934197;29;20163;-88
2023/07/03 00:38:59;;;;;;;16.70;11.77;;;;;;;19.93;83.96;94479.19;4934129;29;20183;-88
2023/07/03 00:41:25;;;;;;;16.65;12.73;;;;;;;19.86;83.76;94470.69;4935301;29;20206;-88
2023/07/03 00:43:51;;;;;;;16.38;11.70;;;;;;;19.69;84.10;94434.75;4935528;29;20183;-88
2023/07/03 00:46:16;;;;;;;15.02;11.55;;;;;;;19.86;84.00;94467.22;4935252;29;20620;-88
2023/07/03 00:48:43;;;;;;;15.35;12.50;;;;;;;20.06;84.03;94498.38;4949976;29;20626;-88
2023/07/03 00:51:11;;;;;;;16.65;11.65;;;;;;;19.53;84.41;94424.19;4935115;29;20204;-87
2023/07/03 00:53:36;;;;;;;17.67;12.10;;;;;;;19.58;84.01;94436.69;4935094;29;20701;-88
2023/07/03 00:56:05;;;;;;;15.57;11.80;;;;;;;19.64;84.75;94461.47;4949828;29;20167;-88
2023/07/03 00:58:31;;;;;;;16.48;12.35;;;;;;;19.52;84.52;94438.59;4935638;29;20179;-88
2023/07/03 01:01:04;;;;;;;15.45;12.05;;;;;;;19.59;84.87;94443.63;4935027;29;20168;-89
2023/07/03 01:03:35;;;;;;;15.63;12.13;;;;;;;19.71;85.03;94470.00;4949787;29;20690;-89
2023/07/03 01:06:05;;;;;;;16.67;14.82;;;;;;;19.58;85.79;94496.25;4932428;29;20448;-89
2023/07/03 01:08:31;;;;;;;15.77;12.48;;;;;;;19.49;85.97;94483.75;4935189;29;20186;-89
2023/07/03 01:10:57;;;;;;;16.13;12.95;;;;;;;19.26;86.60;94460.34;4933060;29;20660;-88
2023/07/03 01:13:26;;;;;;;18.08;14.48;;;;;;;19.31;86.93;94460.31;4933841;29;20533;-88
2023/07/03 01:15:53;;;;;;;19.45;14.70;;;;;;;19.26;86.97;94441.66;4933785;29;20560;-88
2023/07/03 01:18:19;;;;;;;15.50;12.80;;;;;;;19.47;85.83;94451.13;4934188;29;20202;-88
2023/07/03 01:21:00;;;;;;;14.82;12.43;;;;;;;19.88;85.88;94508.63;4934695;29;20218;-86
2023/07/03 01:23:33;;;;;;;17.08;12.13;;;;;;;19.95;85.20;94511.78;4949744;29;20178;-89
2023/07/03 01:26:00;;;;;;;21.83;13.82;;;;;;;19.54;85.08;94449.00;4933917;29;20187;-89
2023/07/03 01:28:27;;;;;;;17.05;14.30;;;;;;;19.63;85.42;94460.72;4934462;29;20909;-89
2023/07/03 01:30:55;;;;;;;18.35;14.57;;;;;;;19.56;85.08;94458.31;4949066;29;20447;-90
2023/07/03 01:33:25;;;;;;;16.27;14.43;;;;;;;19.46;85.57;94460.25;4934579;29;20796;-89
2023/07/03 01:35:52;;;;;;;16.88;12.60;;;;;;;19.46;85.66;94452.25;4937021;29;20162;-89
2023/07/03 01:38:20;;;;;;;18.48;14.27;;;;;;;19.34;85.83;94443.75;4953543;29;20241;-88
2023/07/03 01:40:46;;;;;;;18.15;13.55;;;;;;;19.52;85.98;94453.84;4938618;29;20163;-89
2023/07/03 01:43:13;;;;;;;18.60;14.30;;;;;;;19.54;85.91;94451.69;4937327;29;20802;-89
2023/07/03 01:45:44;;;;;;;18.40;15.10;;;;;;;19.81;86.61;94510.00;4937602;29;20801;-89
2023/07/03 01:48:09;;;;;;;18.45;14.00;;;;;;;19.78;86.26;94510.56;4938690;29;20417;-89
2023/07/03 01:50:37;;;;;;;16.80;13.73;;;;;;;19.60;85.84;94477.28;4953215;29;20171;-89
2023/07/03 01:53:09;;;;;;;19.42;13.55;;;;;;;19.85;86.23;94511.06;4952555;29;20263;-89
2023/07/03 01:55:51;;;;;;;18.35;13.30;;;;;;;19.79;86.04;94504.94;4950820;29;20245;-88
2023/07/03 01:58:37;;;;;;;17.92;13.95;;;;;;;19.82;86.05;94512.38;4934590;29;23939;-89
2023/07/03 02:01:06;;;;;;;17.60;12.93;;;;;;;19.86;86.27;94508.09;4936856;29;20246;-87
2023/07/03 02:03:43;;;;;;;19.92;14.57;;;;;;;19.79;86.28;94510.28;4938088;29;20499;-85
2023/07/03 02:06:29;;;;;;;16.42;13.70;;;;;;;19.70;86.04;94490.56;4952727;29;20234;-87
2023/07/03 02:08:55;;;;;;;18.67;13.05;;;;;;;19.58;85.60;94458.06;4938445;29;20182;-86
2023/07/03 02:11:23;;;;;;;18.27;13.32;;;;;;;19.05;86.38;94398.25;4938020;29;20194;-86
2023/07/03 02:13:49;;;;;;;21.02;14.07;;;;;;;19.84;86.59;94514.78;4937988;29;20182;-86
2023/07/03 02:16:15;;;;;;;16.50;13.18;;;;;;;19.69;86.41;94490.84;4937921;29;20207;-86
2023/07/03 02:18:46;;;;;;;18.27;14.57;;;;;;;19.53;86.59;94479.47;4937590;29;20416;-86
2023/07/03 02:21:13;;;;;;;17.38;13.43;;;;;;;19.44;86.88;94476.53;4936324;29;20677;-86
2023/07/03 02:23:38;;;;;;;16.85;13.43;;;;;;;19.77;87.12;94523.13;4937850;29;20162;-86
2023/07/03 02:26:04;;;;;;;17.30;13.73;;;;;;;19.32;87.40;94441.34;4952499;29;20175;-87
2023/07/03 02:28:29;;;;;;;17.58;12.82;;;;;;;19.71;87.18;94497.53;4937742;29;20728;-86
2023/07/03 02:30:55;;;;;;;15.93;12.90;;;;;;;19.80;87.02;94511.09;4936394;29;20207;-86
2023/07/03 02:33:20;;;;;;;17.75;13.65;;;;;;;19.43;87.11;94450.09;4937717;29;20654;-86
2023/07/03 02:35:46;;;;;;;17.25;14.70;;;;;;;19.56;87.98;94492.25;4951279;29;20421;-86
2023/07/03 02:38:11;;;;;;;19.10;15.32;;;;;;;19.63;88.12;94497.31;4935690;29;20496;-86
2023/07/03 02:40:37;;;;;;;18.13;14.13;;;;;;;19.49;87.44;94471.19;4936554;29;20416;-86
2023/07/03 02:43:03;;;;;;;20.23;15.10;;;;;;;19.44;88.10;94476.53;4934745;29;20424;-87
2023/07/03 02:45:37;;;;;;;18.50;13.02;;;;;;;19.36;87.90;94463.78;4951954;29;20936;-87
2023/07/03 02:48:03;;;;;;;16.38;13.63;;;;;;;19.46;88.31;94478.94;4936821;29;20424;-86
2023/07/03 02:50:28;;;;;;;20.15;15.23;;;;;;;19.36;88.79;94462.97;4936708;29;20781;-86
2023/07/03 02:52:54;;;;;;;23.40;14.40;;;;;;;19.50;88.52;94474.66;4937215;29;20428;-86
2023/07/03 02:55:19;;;;;;;18.27;14.47;;;;;;;19.58;88.01;94482.88;4951461;29;21358;-87
2023/07/03 02:57:45;;;;;;;17.13;12.85;;;;;;;19.75;87.94;94506.56;4935935;29;20171;-86
2023/07/03 03:00:11;;;;;;;21.07;16.23;;;;;;;19.80;88.36;94533.25;4936453;29;20424;-86
2023/07/03 03:02:36;;;;;;;19.15;14.80;;;;;;;19.94;88.42;94541.47;4951878;29;20219;-87
2023/07/03 03:05:02;;;;;;;26.85;20.75;;;;;;;19.82;88.25;94507.06;4935904;29;20441;-87
2023/07/03 03:07:27;;;;;;;18.60;15.63;;;;;;;20.08;88.09;94544.28;4936722;29;20413;-87
2023/07/03 03:09:53;;;;;;;17.27;14.00;;;;;;;20.00;87.55;94535.00;4935903;29;20606;-87
2023/07/03 03:12:18;;;;;;;18.57;15.50;;;;;;;19.70;88.15;94500.47;4935777;29;20451;-87
2023/07/03 03:14:44;;;;;;;19.83;14.10;;;;;;;19.90;88.11;94522.50;4951604;29;20175;-87
2023/07/03 03:17:09;;;;;;;24.57;18.47;;;;;;;19.89;88.24;94514.78;4934590;29;20401;-85
2023/07/03 03:19:34;;;;;;;25.05;14.90;;;;;;;19.76;87.65;94492.13;4951456;29;20189;-85
2023/07/03 03:22:00;;;;;;;23.25;16.85;;;;;;;20.07;87.14;94523.97;4951483;29;20178;-85
2023/07/03 03:24:26;;;;;;;26.90;18.92;;;;;;;20.37;87.70;94563.91;4951465;29;20206;-90
2023/07/03 03:26:51;;;;;;;28.95;19.38;;;;;;;20.19;86.83;94517.22;4935735;29;20175;-88
2023/07/03 03:29:17;;;;;;;26.75;18.23;;;;;;;20.23;86.90;94514.81;4936912;29;20314;-88
2023/07/03 03:31:42;;;;;;;22.13;16.85;;;;;;;20.35;86.99;94523.28;4935311;29;20298;-89
2023/07/03 03:34:08;;;;;;;21.57;15.40;;;;;;;20.61;87.07;94558.63;4936509;29;20530;-84
2023/07/03 03:36:33;;;;;;;21.90;13.85;;;;;;;20.38;86.32;94521.94;4936431;29;21035;-84
2023/07/03 03:38:58;;;;;;;19.63;16.07;;;;;;;20.51;86.91;94567.53;4935447;29;20441;-84
2023/07/03 03:41:24;;;;;;;18.98;15.65;;;;;;;20.01;87.00;94490.38;4934825;29;20428;-84
2023/07/03 03:43:50;;;;;;;19.40;13.70;;;;;;;20.28;86.58;94515.56;4935892;29;20246;-83
2023/07/03 03:46:15;;;;;;;18.92;15.05;;;;;;;20.46;86.90;94532.81;4936277;29;20171;-84
2023/07/03 03:48:40;;;;;;;18.30;13.25;;;;;;;20.57;86.64;94545.03;4935085;29;20240;-84
2023/07/03 03:51:06;;;;;;;17.45;12.93;;;;;;;20.44;87.22;94537.66;4934862;29;20202;-84
2023/07/03 03:53:32;;;;;;;19.13;13.60;;;;;;;20.45;87.68;94517.06;4936449;29;20182;-84
2023/07/03 03:55:57;;;;;;;22.75;14.13;;;;;;;20.61;87.68;94522.00;4936410;29;20168;-84
2023/07/03 03:58:22;;;;;;;19.75;12.93;;;;;;;20.84;86.11;94549.09;4935680;29;20175;-90
2023/07/03 04:00:50;;;;;;;17.63;14.02;;;;;;;20.77;85.63;94525.31;4936555;29;20179;-90
2023/07/03 04:03:16;;;;;;;26.35;19.48;;;;;;;21.20;85.68;94590.50;4935016;29;20167;-91
2023/07/03 04:05:42;;;;;;;23.17;16.73;;;;;;;21.05;85.46;94561.97;4935637;29;20734;-91
2023/07/03 04:08:09;;;;;;;25.80;15.82;;;;;;;21.06;85.31;94554.75;4934239;29;20268;-90
2023/07/03 04:10:34;;;;;;;18.85;13.77;;;;;;;21.08;85.18;94537.34;4935488;29;20198;-90
2023/07/03 04:13:00;;;;;;;21.67;12.70;;;;;;;21.23;85.48;94531.03;4950133;29;20210;-91
2023/07/03 04:15:25;;;;;;;20.25;13.38;;;;;;;21.46;85.09;94548.97;4935113;29;20225;-90
2023/07/03 04:17:51;;;;;;;20.33;12.80;;;;;;;21.55;83.71;94543.78;4936108;29;20242;-90
2023/07/03 04:20:17;;;;;;;16.67;13.85;;;;;;;21.98;83.07;94589.34;4934718;29;20226;-91
2023/07/03 04:22:44;;;;;;;15.48;11.65;;;;;;;22.13;82.61;94583.81;4936022;29;20721;-91
2023/07/03 04:25:10;;;;;;;20.25;14.27;;;;;;;22.01;82.34;94548.56;4950519;29;20277;-91
2023/07/03 04:27:36;;;;;;;16.98;12.85;;;;;;;21.69;81.20;94477.69;4950500;29;20202;-89
2023/07/03 04:30:04;;;;;;;17.30;12.25;;;;;;;21.96;80.86;94514.56;4935681;29;20318;-89
2023/07/03 04:32:29;;;;;;;16.25;12.13;;;;;;;22.28;80.78;94546.03;4950474;29;20234;-90
2023/07/03 04:34:55;;;;;;;17.40;12.25;;;;;;;22.34;79.71;94552.91;4935679;29;20254;-90
2023/07/03 04:37:20;;;;;;;16.85;12.18;;;;;;;22.45;79.80;94580.38;4950360;29;20175;-90
2023/07/03 04:39:45;;;;;;;20.80;11.90;;;;;;;22.17;80.08;94547.25;4950478;29;20167;-90
2023/07/03 04:42:13;;;;;;;16.80;11.98;;;;;;;22.36;79.51;94590.97;4935508;29;20651;-89
2023/07/03 04:44:41;;;;;;;17.63;13.00;;;;;;;22.48;80.98;94617.38;4934355;29;20254;-90
2023/07/03 04:47:08;;;;;;;18.88;12.30;;;;;;;22.08;80.42;94581.97;4949803;29;20266;-90
2023/07/03 04:49:34;;;;;;;29.20;18.58;;;;;;;22.18;81.10;94608.66;4934798;29;20217;-90
2023/07/03 04:51:59;;;;;;;21.63;14.05;;;;;;;21.99;81.28;94575.66;4933539;29;20242;-90
2023/07/03 04:54:27;;;;;;;22.13;14.73;;;;;;;22.05;81.53;94587.13;4949309;29;20573;-91
2023/07/03 04:56:54;;;;;;;20.17;13.57;;;;;;;22.04;81.03;94590.91;4934029;29;20219;-89
2023/07/03 04:59:20;;;;;;;20.88;14.27;;;;;;;21.78;80.54;94577.81;4934235;29;20175;-90
2023/07/03 05:01:45;;;;;;;15.63;11.63;;;;;;;21.83;82.04;94587.66;4935472;29;20179;-89
2023/07/03 05:04:11;;;;;;;21.08;13.23;;;;;;;22.00;82.02;94606.75;4934029;29;20327;-90
2023/07/03 05:06:38;;;;;;;19.67;14.27;;;;;;;21.99;82.35;94602.47;4933894;29;20213;-89
2023/07/03 05:09:04;;;;;;;17.33;12.60;;;;;;;21.98;81.19;94589.34;4933501;29;20191;-90
2023/07/03 05:11:31;;;;;;;19.05;12.57;;;;;;;22.14;81.94;94634.44;4935157;29;20203;-89
2023/07/03 05:13:56;;;;;;;14.80;11.77;;;;;;;22.24;82.12;94638.88;4935031;29;20182;-89
2023/07/03 05:16:22;;;;;;;16.42;11.10;;;;;;;22.10;81.54;94606.63;4935096;29;20596;-89
2023/07/03 05:18:48;;;;;;;15.85;11.00;;;;;;;22.44;82.95;94643.19;4933832;29;20175;-89
2023/07/03 05:21:14;;;;;;;15.70;11.75;;;;;;;22.64;81.04;94639.41;4935076;29;20179;-90
2023/07/03 05:23:39;;;;;;;17.38;11.48;;;;;;;22.54;80.81;94587.47;4949832;29;20646;-89
2023/07/03 05:26:05;;;;;;;15.40;10.63;;;;;;;22.84;79.24;94596.16;4933762;29;20171;-90
2023/07/03 05:28:31;;;;;;;15.80;11.35;;;;;;;23.10;78.21;94608.06;4934943;29;20179;-90
2023/07/03 05:30:58;;;;;;;15.05;10.90;;;;;;;23.10;77.78;94601.88;4949751;29;20631;-90
2023/07/03 05:33:24;;;;;;;14.43;10.48;;;;;;;23.39;78.27;94604.34;4949750;29;20266;-90
2023/07/03 05:35:50;;;;;;;16.63;10.57;;;;;;;23.65;77.92;94582.09;4933719;29;20186;-90
2023/07/03 05:38:15;;;;;;;14.15;11.23;;;;;;;24.13;76.53;94589.69;4935199;29;20171;-90
2023/07/03 05:40:41;;;;;;;14.23;10.15;;;;;;;24.56;74.91;94624.31;4933752;29;20175;-90
2023/07/03 05:43:06;;;;;;;15.02;10.48;;;;;;;24.74;73.34;94615.25;4934756;29;20187;-91
2023/07/03 05:45:31;;;;;;;12.57;9.82;;;;;;;24.81;72.17;94618.34;4948721;29;20266;-90
2023/07/03 05:47:57;;;;;;;16.63;11.32;;;;;;;24.95;72.32;94616.41;4948930;29;20269;-90
2023/07/03 05:50:22;;;;;;;12.40;10.30;;;;;;;25.22;71.25;94623.56;4949074;29;20193;-91
2023/07/03 05:52:48;;;;;;;19.92;10.65;;;;;;;25.16;69.53;94614.00;4949351;29;20599;-92
2023/07/03 05:55:14;;;;;;;12.50;9.95;;;;;;;24.95;71.07;94591.38;4934016;29;20190;-91
2023/07/03 05:57:39;;;;;;;14.45;10.98;;;;;;;25.28;71.61;94616.91;4949996;29;20677;-90
2023/07/03 06:00:12;;;;;;;14.10;10.43;;;;;;;25.41;71.29;94610.66;4933584;29;20664;-90
2023/07/03 06:02:41;;;;;;;12.95;9.88;;;;;;;25.85;69.28;94636.75;4933525;29;20218;-88
2023/07/03 06:05:08;;;;;;;16.67;9.70;;;;;;;26.13;68.03;94653.47;4933461;29;20227;-90
2023/07/03 06:07:33;;;;;;;21.17;10.63;;;;;;;26.08;67.07;94634.75;4949854;29;20233;-91
2023/07/03 06:09:58;;;;;;;13.27;9.63;;;;;;;26.15;65.67;94651.25;4949617;29;20219;-90
2023/07/03 06:12:29;;;;;;;13.52;9.98;;;;;;;26.01;66.38;94612.03;4933590;29;20199;-89
2023/07/03 06:14:59;;;;;;;10.10;9.00;;;;;;;26.52;67.39;94674.25;4948896;29;20644;-89
2023/07/03 06:17:26;;;;;;;13.02;9.65;;;;;;;26.77;67.17;94671.88;4934120;29;20194;-90
2023/07/03 06:19:51;;;;;;;12.13;9.88;;;;;;;26.73;66.68;94625.00;4948837;29;20182;-90
2023/07/03 06:22:17;;;;;;;13.90;8.98;;;;;;;26.92;65.44;94629.00;4936879;29;20187;-90
2023/07/03 06:24:43;;;;;;;11.30;10.05;;;;;;;27.44;65.10;94672.19;4938263;29;20347;-90
2023/07/03 06:27:09;;;;;;;12.77;9.25;;;;;;;27.55;64.54;94653.75;4952932;29;20183;-90
2023/07/03 06:29:34;;;;;;;13.98;9.25;;;;;;;27.57;64.39;94613.66;4938036;29;20163;-90
2023/07/03 06:32:00;;;;;;;11.25;8.80;;;;;;;27.80;63.63;94623.09;4952592;29;20217;-91
2023/07/03 06:34:25;;;;;;;11.07;8.25;;;;;;;27.98;61.73;94624.63;4952066;29;20198;-89
2023/07/03 06:36:51;;;;;;;11.30;8.77;;;;;;;28.26;62.20;94640.44;4952168;29;20183;-90
2023/07/03 06:39:17;;;;;;;12.02;10.73;;;;;;;28.24;60.73;94616.38;4936020;29;20183;-87
2023/07/03 06:41:45;;;;;;;12.07;8.68;;;;;;;28.66;62.38;94649.72;4937885;29;20166;-89
2023/07/03 06:44:13;;;;;;;13.30;8.68;;;;;;;28.90;60.04;94671.56;4936304;29;20546;-85
2023/07/03 06:46:39;;;;;;;13.15;8.27;;;;;;;28.91;60.11;94666.94;4937347;29;20187;-85
2023/07/03 06:49:05;;;;;;;13.23;9.35;;;;;;;28.67;59.11;94618.78;4937558;29;20557;-86
2023/07/03 06:51:31;;;;;;;10.65;8.57;;;;;;;29.00;58.76;94659.53;4936134;29;20269;-87
2023/07/03 06:53:56;;;;;;;23.90;9.02;;;;;;;29.16;58.94;94671.34;4936174;29;20246;-86
2023/07/03 06:56:22;;;;;;;13.85;8.80;;;;;;;29.05;58.34;94643.06;4937114;29;20266;-86
2023/07/03 06:58:49;;;;;;;10.70;8.00;;;;;;;29.12;59.41;94623.56;4936383;29;20194;-85
2023/07/03 07:01:17;;;;;;;12.45;7.57;;;;;;;29.21;59.11;94624.25;4936466;29;20258;-87
2023/07/03 07:03:43;;;;;;;10.25;8.38;;;;;;;29.61;57.68;94668.72;4935146;29;20274;-87
2023/07/03 07:06:14;;;;;;;13.52;9.13;;;;;;;29.68;57.07;94664.66;4936193;29;20314;-86
2023/07/03 07:08:41;;;;;;;11.00;8.40;;;;;;;29.39;56.62;94620.28;4935321;29;20293;-87
2023/07/03 07:11:18;;;;;;;12.90;8.27;;;;;;;29.61;57.28;94657.06;4937192;29;20199;-86
2023/07/03 07:13:47;;;;;;;13.38;8.77;;;;;;;29.49;57.04;94627.22;4937294;29;20191;-86
2023/07/03 07:16:21;;;;;;;10.38;7.68;;;;;;;29.43;58.09;94651.03;4937418;29;20166;-86
2023/07/03 07:18:50;;;;;;;13.23;8.15;;;;;;;29.15;57.84;94626.38;4936998;29;20156;-86
2023/07/03 07:21:16;;;;;;;7.97;6.95;;;;;;;28.67;57.33;94613.38;4935544;29;20179;-85
2023/07/03 07:23:42;;;;;;;13.23;8.38;;;;;;;28.88;58.59;94667.63;4936968;29;20258;-86
2023/07/03 07:26:07;;;;;;;14.18;9.05;;;;;;;28.51;58.59;94602.34;4951071;29;20262;-87
2023/07/03 07:28:33;;;;;;;9.18;7.80;;;;;;;28.73;59.64;94600.41;4935856;29;20678;-85
2023/07/03 07:30:59;;;;;;;14.38;8.10;;;;;;;29.27;58.02;94660.91;4935471;29;20213;-83
2023/07/03 07:33:24;;;;;;;9.55;7.90;;;;;;;29.44;57.75;94649.09;4934815;29;20183;-82
2023/07/03 07:35:51;;;;;;;11.77;8.13;;;;;;;29.84;57.79;94660.94;4935525;29;20261;-84
2023/07/03 07:38:18;;;;;;;9.43;7.60;;;;;;;29.77;54.61;94630.84;4950326;29;20187;-84
2023/07/03 07:40:43;;;;;;;11.57;7.68;;;;;;;30.04;55.71;94644.94;4935604;29;20233;-83
2023/07/03 07:43:09;;;;;;;8.93;7.40;;;;;;;29.98;56.80;94628.09;4935419;29;20270;-85
2023/07/03 07:45:35;;;;;;;13.40;7.30;;;;;;;30.37;54.43;94670.84;4935331;29;20187;-85
2023/07/03 07:48:00;;;;;;;8.95;7.15;;;;;;;30.36;54.98;94654.88;4935304;29;20187;-85
2023/07/03 07:50:27;;;;;;;8.98;7.30;;;;;;;30.56;52.63;94666.81;4935562;29;20730;-86
2023/07/03 07:52:54;;;;;;;8.90;7.07;;;;;;;30.16;53.53;94625.94;4935886;29;20275;-84
2023/07/03 07:55:19;;;;;;;9.27;6.90;;;;;;;30.38;55.04;94642.56;4950655;29;20234;-83
2023/07/03 07:57:45;;;;;;;10.25;6.90;;;;;;;30.52;53.34;94638.72;4936007;29;20155;-84
2023/07/03 08:00:11;;;;;;;10.13;7.45;;;;;;;30.75;53.63;94646.03;4936251;29;20901;-87
2023/07/03 08:02:36;;;;;;;10.57;8.55;;;;;;;31.07;53.22;94695.97;4936043;29;20175;-82
2023/07/03 08:05:02;;;;;;;9.75;6.60;;;;;;;30.97;54.67;94668.41;4935877;29;20223;-81
2023/07/03 08:07:28;;;;;;;8.68;6.80;;;;;;;30.94;52.96;94645.44;4936263;29;20254;-80
2023/07/03 08:09:53;;;;;;;12.30;6.95;;;;;;;31.32;53.01;94688.50;4935340;29;20246;-81
2023/07/03 08:12:27;;;;;;;8.50;7.35;;;;;;;31.14;53.41;94648.34;4935014;29;20595;-82
2023/07/03 08:14:55;;;;;;;7.60;6.80;;;;;;;31.52;52.79;94699.53;4933899;29;20687;-82
2023/07/03 08:17:21;;;;;;;8.52;6.93;;;;;;;31.62;50.60;94699.06;4935082;29;20179;-85
2023/07/03 08:19:46;;;;;;;11.10;8.38;;;;;;;31.48;51.11;94661.34;4934505;29;20183;-87
2023/07/03 08:22:11;;;;;;;11.45;6.90;;;;;;;31.40;51.07;94643.22;4950430;29;20167;-87
2023/07/03 08:24:37;;;;;;;9.23;7.78;;;;;;;31.48;51.57;94653.19;4935789;29;20209;-88
2023/07/03 08:27:02;;;;;;;12.07;7.80;;;;;;;31.26;52.62;94638.19;4933534;29;20651;-86
2023/07/03 08:29:28;;;;;;;7.68;6.72;;;;;;;31.38;49.97;94656.41;4934823;29;20210;-88
2023/07/03 08:31:53;;;;;;;10.18;6.45;;;;;;;31.22;52.67;94642.75;4934741;29;20199;-84
2023/07/03 08:34:18;;;;;;;17.13;7.85;;;;;;;31.22;50.71;94694.47;4934924;29;20198;-84
2023/07/03 08:36:44;;;;;;;14.07;7.13;;;;;;;30.39;50.73;94665.09;4935438;29;20163;-85
2023/07/03 08:39:09;;;;;;;11.13;6.75;;;;;;;30.32;50.24;94703.69;4935377;29;20211;-84
2023/07/03 08:41:57;;;;;;;11.20;7.30;;;;;;;29.70;51.95;94671.34;4935548;29;20152;-84
2023/07/03 08:44:23;;;;;;;12.63;8.65;;;;;;;29.52;56.27;94681.56;4934085;29;20235;-83
2023/07/03 08:46:49;;;;;;;9.55;8.05;;;;;;;29.60;55.09;94693.47;4934519;29;20262;-83
2023/07/03 08:49:19;;;;;;;9.55;7.80;;;;;;;29.86;56.60;94685.84;4949238;29;20651;-83
2023/07/03 08:51:45;;;;;;;8.27;6.53;;;;;;;30.17;55.44;94695.44;4934012;29;20214;-82
2023/07/03 08:54:28;;;;;;;10.20;6.32;;;;;;;30.05;51.92;94700.84;4935087;29;20170;-80
2023/07/03 08:56:56;;;;;;;8.75;6.28;;;;;;;29.68;53.18;94697.22;4934840;29;20221;-80
2023/07/03 08:59:21;;;;;;;7.75;5.80;;;;;;;29.50;55.46;94672.97;4932191;29;20197;-80
2023/07/03 09:01:57;;;;;;;7.65;6.47;;;;;;;29.21;54.15;94697.50;4931549;29;20191;-80
2023/07/03 09:04:53;;;;;;;13.48;8.07;;;;;;;29.14;57.92;94694.53;4930232;29;20305;-80
2023/07/03 09:07:32;;;;;;;8.95;7.03;;;;;;;29.31;56.75;94691.66;4929283;29;20179;-80
2023/07/03 09:10:09;;;;;;;8.60;6.32;;;;;;;29.67;58.12;94685.56;4930563;29;20187;-80
2023/07/03 09:12:40;;;;;;;12.57;8.68;;;;;;;29.98;53.57;94693.25;4929037;29;20202;-80
2023/07/03 09:15:46;;;;;;;9.43;5.85;;;;;;;29.75;53.10;94662.19;4930409;29;20183;-80
2023/07/03 09:18:17;;;;;;;9.00;6.57;;;;;;;29.80;53.62;94689.13;4891049;29;20262;-81
2023/07/03 09:20:46;;;;;;;11.95;6.82;;;;;;;29.69;55.81;94687.94;4926566;29;20195;-80
2023/07/03 09:23:25;;;;;;;9.35;6.30;;;;;;;29.43;56.96;94683.59;4931810;29;20618;-80
2023/07/03 09:26:03;;;;;;;8.60;7.40;;;;;;;29.35;55.70;94697.19;4932019;29;20187;-80
2023/07/03 09:28:29;;;;;;;8.77;6.57;;;;;;;29.11;56.53;94692.47;4931921;29;20190;-80
2023/07/03 09:30:55;;;;;;;10.73;6.72;;;;;;;29.18;59.72;94690.00;4931886;29;20182;-80
2023/07/03 09:33:21;;;;;;;7.60;6.32;;;;;;;29.36;58.70;94691.47;4932064;29;20186;-80
2023/07/03 09:35:47;;;;;;;6.95;5.95;;;;;;;29.46;54.73;94655.78;4931689;29;20179;-80
2023/07/03 09:38:24;;;;;;;6.32;5.60;;;;;;;29.57;52.13;94677.88;4932366;29;20190;-80
2023/07/03 09:40:53;;;;;;;7.28;6.28;;;;;;;29.74;54.94;94693.19;4931955;29;20681;-80
2023/07/03 09:43:41;;;;;;;10.43;6.00;;;;;;;29.92;55.36;94698.09;4932907;29;20191;-80
2023/07/03 09:46:10;;;;;;;6.78;5.88;;;;;;;30.10;53.02;94684.34;4932032;29;20202;-80
2023/07/03 09:48:36;;;;;;;9.18;5.47;;;;;;;30.15;50.74;94689.53;4932719;29;20595;-80
2023/07/03 09:51:24;;;;;;;9.57;5.57;;;;;;;29.76;48.98;94675.41;4932658;29;20239;-80
2023/07/03 09:53:53;;;;;;;8.57;5.65;;;;;;;29.75;53.67;94687.41;4930566;29;20576;-79
2023/07/03 09:56:24;;;;;;;7.88;5.85;;;;;;;29.61;51.97;94676.84;4934129;29;20175;-80
2023/07/03 09:58:58;;;;;;;8.90;5.22;;;;;;;29.72;51.74;94685.38;4937684;29;20176;-81
2023/07/03 10:01:27;;;;;;;6.30;5.18;;;;;;;29.66;53.34;94686.72;4937761;29;20171;-80
2023/07/03 10:04:09;;;;;;;7.35;4.88;;;;;;;29.63;52.14;94676.53;4937167;29;20175;-81
2023/07/03 10:06:35;;;;;;;7.18;5.85;;;;;;;29.69;51.71;94688.75;4936765;29;20633;-81
2023/07/03 10:09:17;;;;;;;7.32;5.97;;;;;;;29.68;52.87;94678.22;4937295;29;20191;-81
2023/07/03 10:11:42;;;;;;;7.53;5.50;;;;;;;29.50;57.15;94672.97;4937141;29;20207;-80
2023/07/03 10:14:16;;;;;;;8.10;6.07;;;;;;;29.51;56.69;94681.91;4937507;29;20569;-81
2023/07/03 10:16:43;;;;;;;9.07;5.38;;;;;;;29.32;56.30;94651.78;4937955;29;20201;-81
2023/07/03 10:19:09;;;;;;;13.50;6.22;;;;;;;29.52;56.84;94676.16;4937244;29;20170;-80
2023/07/03 10:21:36;;;;;;;9.75;5.10;;;;;;;29.56;55.44;94677.09;4937937;29;20159;-80
2023/07/03 10:24:02;;;;;;;15.32;5.18;;;;;;;29.43;56.98;94659.16;4936580;29;20178;-80
2023/07/03 10:26:57;;;;;;;8.23;5.68;;;;;;;29.61;51.42;94676.06;4937831;29;20250;-82
2023/07/03 10:29:29;;;;;;;10.60;5.85;;;;;;;29.54;51.16;94656.81;4935449;29;20184;-79
2023/07/03 10:31:59;;;;;;;8.15;5.82;;;;;;;29.38;54.42;94670.25;4937085;29;20207;-79
2023/07/03 10:34:40;;;;;;;6.03;5.18;;;;;;;29.38;54.12;94667.53;4937334;29;20177;-79
2023/07/03 10:37:07;;;;;;;8.50;4.25;;;;;;;29.34;50.62;94658.44;4949863;29;20194;-81
2023/07/03 10:39:53;;;;;;;6.93;5.00;;;;;;;29.16;50.18;94667.84;4937076;29;20655;-79
2023/07/03 10:42:29;;;;;;;6.70;4.93;;;;;;;29.16;54.39;94670.56;4935933;29;20171;-79
2023/07/03 10:45:01;;;;;;;6.00;4.95;;;;;;;29.20;53.41;94671.50;4935299;29;20175;-80
2023/07/03 10:47:55;;;;;;;6.32;4.93;;;;;;;29.23;51.92;94673.53;4935611;29;20175;-80
2023/07/03 10:50:30;;;;;;;5.07;4.30;;;;;;;29.21;52.80;94670.38;4927073;29;20730;-80
2023/07/03 10:53:07;;;;;;;6.70;4.70;;;;;;;29.31;53.66;94658.31;4936520;29;20683;-82
2023/07/03 10:55:58;;;;;;;7.55;5.07;;;;;;;29.05;55.07;94651.22;4935250;29;20983;-81
2023/07/03 10:58:27;;;;;;;5.38;4.50;;;;;;;29.23;53.33;94660.00;4934518;29;20183;-79
2023/07/03 11:01:02;;;;;;;6.75;4.88;;;;;;;29.36;53.43;94661.63;4934415;29;20175;-81
2023/07/03 11:03:47;;;;;;;11.65;5.32;;;;;;;29.37;54.99;94665.13;4936201;29;20171;-81
2023/07/03 11:06:22;;;;;;;6.78;5.00;;;;;;;29.13;54.88;94657.69;4935950;29;20214;-80
2023/07/03 11:09:11;;;;;;;8.35;5.13;;;;;;;28.90;55.90;94671.56;4933782;29;20246;-79
2023/07/03 11:11:40;;;;;;;5.93;4.30;;;;;;;28.67;56.86;94666.78;4934524;29;20258;-80
2023/07/03 11:14:33;;;;;;;8.95;4.65;;;;;;;28.45;58.06;94670.59;4935405;29;20183;-80
2023/07/03 11:17:07;;;;;;;6.60;4.80;;;;;;;28.26;58.09;94664.81;4934946;29;20730;-79
2023/07/03 11:19:43;;;;;;;10.52;5.47;;;;;;;27.88;57.71;94643.13;4935297;29;20182;-79
2023/07/03 11:22:13;;;;;;;7.07;5.13;;;;;;;27.88;58.42;94660.16;4935360;29;20214;-80
2023/07/03 11:24:50;;;;;;;10.02;4.20;;;;;;;27.77;58.75;94661.63;4936002;29;20266;-81
2023/07/03 11:27:45;;;;;;;12.73;5.10;;;;;;;27.65;60.54;94653.41;4933926;29;20183;-81